sensor_id;sensor_type;location;lat;lon;timestamp;P1;durP1;ratioP1;P2;durP2;ratioP2
21091;SDS011;10704;42.678;23.288;2023-02-23T00:01:43;15.77;;;8.35;;
21091;SDS011;10704;42.678;23.288;2023-02-23T00:04:09;13.50;;;7.47;;
21091;SDS011;10704;42.678;23.288;2023-02-23T00:06:35;16.55;;;7.55;;
21091;SDS011;10704;42.678;23.288;2023-02-23T00:09:02;15.10;;;7.25;;
21091;SDS011;10704;42.678;23.288;2023-02-23T00:11:39;15.60;;;9.00;;
21091;SDS011;10704;42.678;23.288;2023-02-23T00:14:05;17.30;;;9.45;;
21091;SDS011;10704;42.678;23.288;2023-02-23T00:16:33;14.13;;;7.80;;
21091;SDS011;10704;42.678;23.288;2023-02-23T00:18:58;13.10;;;6.68;;
21091;SDS011;10704;42.678;23.288;2023-02-23T00:21:28;16.30;;;7.85;;
21091;SDS011;10704;42.678;23.288;2023-02-23T00:24:03;16.38;;;8.15;;
21091;SDS011;10704;42.678;23.288;2023-02-23T00:26:31;15.38;;;7.22;;
21091;SDS011;10704;42.678;23.288;2023-02-23T00:28:59;17.83;;;9.07;;
21091;SDS011;10704;42.678;23.288;2023-02-23T00:31:28;20.00;;;8.88;;
21091;SDS011;10704;42.678;23.288;2023-02-23T00:33:57;19.88;;;9.57;;
21091;SDS011;10704;42.678;23.288;2023-02-23T00:36:25;20.70;;;10.52;;
21091;SDS011;10704;42.678;23.288;2023-02-23T00:38:57;21.00;;;9.20;;
21091;SDS011;10704;42.678;23.288;2023-02-23T00:41:25;16.70;;;9.45;;
21091;SDS011;10704;42.678;23.288;2023-02-23T00:43:58;19.38;;;10.27;;
21091;SDS011;10704;42.678;23.288;2023-02-23T00:46:26;19.40;;;9.70;;
21091;SDS011;10704;42.678;23.288;2023-02-23T00:48:55;19.77;;;11.25;;
21091;SDS011;10704;42.678;23.288;2023-02-23T00:51:23;20.92;;;10.52;;
21091;SDS011;10704;42.678;23.288;2023-02-23T00:53:59;26.05;;;11.07;;
21091;SDS011;10704;42.678;23.288;2023-02-23T00:56:25;19.58;;;10.15;;
21091;SDS011;10704;42.678;23.288;2023-02-23T00:58:52;17.80;;;10.38;;
21091;SDS011;10704;42.678;23.288;2023-02-23T01:01:18;21.77;;;10.48;;
21091;SDS011;10704;42.678;23.288;2023-02-23T01:03:44;20.52;;;10.40;;
21091;SDS011;10704;42.678;23.288;2023-02-23T01:06:12;18.30;;;9.82;;
21091;SDS011;10704;42.678;23.288;2023-02-23T01:08:41;20.10;;;10.82;;
21091;SDS011;10704;42.678;23.288;2023-02-23T01:11:13;21.38;;;11.68;;
21091;SDS011;10704;42.678;23.288;2023-02-23T01:13:41;19.98;;;10.52;;
21091;SDS011;10704;42.678;23.288;2023-02-23T01:16:10;20.55;;;10.52;;
21091;SDS011;10704;42.678;23.288;2023-02-23T01:18:38;23.48;;;11.88;;
21091;SDS011;10704;42.678;23.288;2023-02-23T01:21:06;24.83;;;13.02;;
21091;SDS011;10704;42.678;23.288;2023-02-23T01:23:42;27.50;;;13.95;;
21091;SDS011;10704;42.678;23.288;2023-02-23T01:26:20;23.77;;;14.13;;
21091;SDS011;10704;42.678;23.288;2023-02-23T01:28:56;23.45;;;13.73;;
21091;SDS011;10704;42.678;23.288;2023-02-23T01:31:24;21.67;;;12.68;;
21091;SDS011;10704;42.678;23.288;2023-02-23T01:33:58;31.48;;;15.45;;
21091;SDS011;10704;42.678;23.288;2023-02-23T01:36:28;24.55;;;14.90;;
21091;SDS011;10704;42.678;23.288;2023-02-23T01:38:58;31.90;;;14.75;;
21091;SDS011;10704;42.678;23.288;2023-02-23T01:41:25;22.25;;;13.30;;
21091;SDS011;10704;42.678;23.288;2023-02-23T01:44:07;26.63;;;14.23;;
21091;SDS011;10704;42.678;23.288;2023-02-23T01:46:38;24.23;;;13.00;;
21091;SDS011;10704;42.678;23.288;2023-02-23T01:49:06;22.67;;;12.50;;
21091;SDS011;10704;42.678;23.288;2023-02-23T01:51:38;23.73;;;12.63;;
21091;SDS011;10704;42.678;23.288;2023-02-23T01:54:11;23.55;;;13.10;;
21091;SDS011;10704;42.678;23.288;2023-02-23T01:56:43;28.25;;;13.57;;
21091;SDS011;10704;42.678;23.288;2023-02-23T01:59:14;30.13;;;14.30;;
21091;SDS011;10704;42.678;23.288;2023-02-23T02:01:42;26.52;;;13.90;;
21091;SDS011;10704;42.678;23.288;2023-02-23T02:04:10;27.73;;;13.98;;
21091;SDS011;10704;42.678;23.288;2023-02-23T02:06:42;25.25;;;12.93;;
21091;SDS011;10704;42.678;23.288;2023-02-23T02:09:13;22.42;;;12.45;;
21091;SDS011;10704;42.678;23.288;2023-02-23T02:11:41;21.95;;;11.02;;
21091;SDS011;10704;42.678;23.288;2023-02-23T02:14:15;19.70;;;9.85;;
21091;SDS011;10704;42.678;23.288;2023-02-23T02:46:14;16.38;;;9.45;;
21091;SDS011;10704;42.678;23.288;2023-02-23T02:51:19;18.80;;;10.30;;
21091;SDS011;10704;42.678;23.288;2023-02-23T02:54:19;21.13;;;11.95;;
21091;SDS011;10704;42.678;23.288;2023-02-23T02:56:54;28.40;;;13.18;;
21091;SDS011;10704;42.678;23.288;2023-02-23T02:59:25;23.17;;;12.60;;
21091;SDS011;10704;42.678;23.288;2023-02-23T03:02:14;28.02;;;14.35;;
21091;SDS011;10704;42.678;23.288;2023-02-23T03:05:01;23.05;;;13.38;;
21091;SDS011;10704;42.678;23.288;2023-02-23T03:11:08;26.35;;;14.65;;
21091;SDS011;10704;42.678;23.288;2023-02-23T03:16:50;26.35;;;15.13;;
21091;SDS011;10704;42.678;23.288;2023-02-23T03:19:54;27.65;;;13.95;;
21091;SDS011;10704;42.678;23.288;2023-02-23T03:29:02;31.08;;;15.18;;
21091;SDS011;10704;42.678;23.288;2023-02-23T03:38:37;27.45;;;14.13;;
21091;SDS011;10704;42.678;23.288;2023-02-23T03:41:27;26.23;;;15.68;;
21091;SDS011;10704;42.678;23.288;2023-02-23T03:44:16;24.33;;;14.73;;
21091;SDS011;10704;42.678;23.288;2023-02-23T03:47:04;25.42;;;13.88;;
21091;SDS011;10704;42.678;23.288;2023-02-23T03:49:51;29.25;;;15.27;;
21091;SDS011;10704;42.678;23.288;2023-02-23T03:52:43;30.27;;;15.45;;
21091;SDS011;10704;42.678;23.288;2023-02-23T03:55:33;27.35;;;15.27;;
21091;SDS011;10704;42.678;23.288;2023-02-23T03:58:30;28.77;;;15.68;;
21091;SDS011;10704;42.678;23.288;2023-02-23T04:01:19;25.25;;;13.65;;
21091;SDS011;10704;42.678;23.288;2023-02-23T04:04:05;30.33;;;16.02;;
21091;SDS011;10704;42.678;23.288;2023-02-23T04:06:52;26.63;;;14.30;;
21091;SDS011;10704;42.678;23.288;2023-02-23T04:09:41;28.42;;;14.60;;
21091;SDS011;10704;42.678;23.288;2023-02-23T04:17:57;27.42;;;15.57;;
21091;SDS011;10704;42.678;23.288;2023-02-23T04:20:23;29.45;;;16.70;;
21091;SDS011;10704;42.678;23.288;2023-02-23T04:22:50;31.90;;;16.35;;
21091;SDS011;10704;42.678;23.288;2023-02-23T04:25:16;29.15;;;16.67;;
21091;SDS011;10704;42.678;23.288;2023-02-23T04:27:49;29.70;;;16.73;;
21091;SDS011;10704;42.678;23.288;2023-02-23T04:30:16;29.40;;;16.13;;
21091;SDS011;10704;42.678;23.288;2023-02-23T04:32:42;25.73;;;14.38;;
21091;SDS011;10704;42.678;23.288;2023-02-23T04:35:10;25.85;;;14.10;;
21091;SDS011;10704;42.678;23.288;2023-02-23T04:37:36;27.95;;;14.45;;
21091;SDS011;10704;42.678;23.288;2023-02-23T04:40:03;25.23;;;13.75;;
21091;SDS011;10704;42.678;23.288;2023-02-23T04:42:30;27.67;;;14.25;;
21091;SDS011;10704;42.678;23.288;2023-02-23T04:44:56;23.90;;;13.25;;
21091;SDS011;10704;42.678;23.288;2023-02-23T04:47:23;23.77;;;13.45;;
21091;SDS011;10704;42.678;23.288;2023-02-23T04:49:49;20.13;;;12.30;;
21091;SDS011;10704;42.678;23.288;2023-02-23T04:52:15;19.98;;;12.05;;
21091;SDS011;10704;42.678;23.288;2023-02-23T04:54:41;21.30;;;12.65;;
21091;SDS011;10704;42.678;23.288;2023-02-23T04:57:07;23.45;;;12.40;;
21091;SDS011;10704;42.678;23.288;2023-02-23T04:59:34;26.15;;;13.32;;
21091;SDS011;10704;42.678;23.288;2023-02-23T05:02:00;22.67;;;12.50;;
21091;SDS011;10704;42.678;23.288;2023-02-23T05:04:26;28.20;;;15.18;;
21091;SDS011;10704;42.678;23.288;2023-02-23T05:06:52;22.60;;;13.35;;
21091;SDS011;10704;42.678;23.288;2023-02-23T05:09:18;25.15;;;13.30;;
21091;SDS011;10704;42.678;23.288;2023-02-23T05:11:44;25.13;;;13.57;;
21091;SDS011;10704;42.678;23.288;2023-02-23T05:14:11;23.77;;;13.80;;
21091;SDS011;10704;42.678;23.288;2023-02-23T05:16:37;20.02;;;12.77;;
21091;SDS011;10704;42.678;23.288;2023-02-23T05:19:03;20.85;;;13.73;;
21091;SDS011;10704;42.678;23.288;2023-02-23T05:21:30;22.75;;;13.25;;
21091;SDS011;10704;42.678;23.288;2023-02-23T05:23:55;23.83;;;14.15;;
21091;SDS011;10704;42.678;23.288;2023-02-23T05:26:22;25.17;;;13.55;;
21091;SDS011;10704;42.678;23.288;2023-02-23T05:28:48;26.05;;;15.30;;
21091;SDS011;10704;42.678;23.288;2023-02-23T05:31:14;25.40;;;14.35;;
21091;SDS011;10704;42.678;23.288;2023-02-23T05:33:40;25.95;;;14.23;;
21091;SDS011;10704;42.678;23.288;2023-02-23T05:36:10;21.95;;;14.48;;
21091;SDS011;10704;42.678;23.288;2023-02-23T05:38:38;28.27;;;15.57;;
21091;SDS011;10704;42.678;23.288;2023-02-23T05:41:09;26.45;;;14.25;;
21091;SDS011;10704;42.678;23.288;2023-02-23T05:43:46;26.27;;;13.93;;
21091;SDS011;10704;42.678;23.288;2023-02-23T05:46:14;28.90;;;14.30;;
21091;SDS011;10704;42.678;23.288;2023-02-23T05:48:43;28.35;;;13.52;;
21091;SDS011;10704;42.678;23.288;2023-02-23T05:51:13;25.67;;;14.48;;
21091;SDS011;10704;42.678;23.288;2023-02-23T05:53:41;31.25;;;15.90;;
21091;SDS011;10704;42.678;23.288;2023-02-23T05:56:07;27.85;;;15.32;;
21091;SDS011;10704;42.678;23.288;2023-02-23T05:58:37;31.27;;;19.20;;
21091;SDS011;10704;42.678;23.288;2023-02-23T06:01:03;38.70;;;18.30;;
21091;SDS011;10704;42.678;23.288;2023-02-23T06:03:28;31.33;;;17.25;;
21091;SDS011;10704;42.678;23.288;2023-02-23T06:05:55;31.92;;;16.92;;
21091;SDS011;10704;42.678;23.288;2023-02-23T06:08:23;36.53;;;18.15;;
21091;SDS011;10704;42.678;23.288;2023-02-23T06:10:50;32.65;;;19.35;;
21091;SDS011;10704;42.678;23.288;2023-02-23T06:13:16;35.05;;;18.70;;
21091;SDS011;10704;42.678;23.288;2023-02-23T06:15:43;34.33;;;19.35;;
21091;SDS011;10704;42.678;23.288;2023-02-23T06:18:09;32.42;;;20.55;;
21091;SDS011;10704;42.678;23.288;2023-02-23T06:20:35;32.42;;;19.00;;
21091;SDS011;10704;42.678;23.288;2023-02-23T06:23:02;37.08;;;20.27;;
21091;SDS011;10704;42.678;23.288;2023-02-23T06:25:28;34.10;;;20.27;;
21091;SDS011;10704;42.678;23.288;2023-02-23T06:27:54;37.10;;;20.67;;
21091;SDS011;10704;42.678;23.288;2023-02-23T06:34:08;36.58;;;20.75;;
21091;SDS011;10704;42.678;23.288;2023-02-23T06:36:36;33.80;;;19.92;;
21091;SDS011;10704;42.678;23.288;2023-02-23T06:39:02;38.15;;;21.00;;
21091;SDS011;10704;42.678;23.288;2023-02-23T06:41:29;41.67;;;23.95;;
21091;SDS011;10704;42.678;23.288;2023-02-23T06:43:55;37.53;;;21.77;;
21091;SDS011;10704;42.678;23.288;2023-02-23T06:46:21;40.83;;;22.48;;
21091;SDS011;10704;42.678;23.288;2023-02-23T06:48:48;46.25;;;21.98;;
21091;SDS011;10704;42.678;23.288;2023-02-23T06:51:18;35.25;;;18.85;;
21091;SDS011;10704;42.678;23.288;2023-02-23T06:53:44;35.72;;;20.38;;
21091;SDS011;10704;42.678;23.288;2023-02-23T06:56:10;40.13;;;21.50;;
21091;SDS011;10704;42.678;23.288;2023-02-23T06:58:38;42.00;;;22.10;;
21091;SDS011;10704;42.678;23.288;2023-02-23T07:01:05;42.25;;;23.55;;
21091;SDS011;10704;42.678;23.288;2023-02-23T07:03:31;44.35;;;21.92;;
21091;SDS011;10704;42.678;23.288;2023-02-23T07:05:56;36.28;;;20.65;;
21091;SDS011;10704;42.678;23.288;2023-02-23T07:08:22;37.05;;;20.27;;
21091;SDS011;10704;42.678;23.288;2023-02-23T07:10:48;38.85;;;22.05;;
21091;SDS011;10704;42.678;23.288;2023-02-23T07:13:14;36.45;;;20.60;;
21091;SDS011;10704;42.678;23.288;2023-02-23T07:15:40;37.47;;;21.67;;
21091;SDS011;10704;42.678;23.288;2023-02-23T07:18:06;48.70;;;24.55;;
21091;SDS011;10704;42.678;23.288;2023-02-23T07:20:33;39.60;;;21.63;;
21091;SDS011;10704;42.678;23.288;2023-02-23T07:22:59;39.15;;;21.67;;
21091;SDS011;10704;42.678;23.288;2023-02-23T07:25:26;43.13;;;22.60;;
21091;SDS011;10704;42.678;23.288;2023-02-23T07:27:53;39.97;;;21.60;;
21091;SDS011;10704;42.678;23.288;2023-02-23T07:30:19;40.15;;;20.90;;
21091;SDS011;10704;42.678;23.288;2023-02-23T07:32:49;29.88;;;17.85;;
21091;SDS011;10704;42.678;23.288;2023-02-23T07:35:15;34.00;;;16.42;;
21091;SDS011;10704;42.678;23.288;2023-02-23T07:37:41;25.98;;;14.40;;
21091;SDS011;10704;42.678;23.288;2023-02-23T07:40:08;27.88;;;13.63;;
21091;SDS011;10704;42.678;23.288;2023-02-23T07:42:34;32.03;;;15.13;;
21091;SDS011;10704;42.678;23.288;2023-02-23T07:45:02;25.10;;;13.77;;
21091;SDS011;10704;42.678;23.288;2023-02-23T07:47:28;27.33;;;15.10;;
21091;SDS011;10704;42.678;23.288;2023-02-23T07:49:59;25.98;;;15.13;;
21091;SDS011;10704;42.678;23.288;2023-02-23T07:52:27;22.73;;;13.13;;
21091;SDS011;10704;42.678;23.288;2023-02-23T07:54:53;20.25;;;13.13;;
21091;SDS011;10704;42.678;23.288;2023-02-23T07:57:19;27.08;;;13.65;;
21091;SDS011;10704;42.678;23.288;2023-02-23T07:59:46;20.80;;;12.60;;
21091;SDS011;10704;42.678;23.288;2023-02-23T08:02:12;23.48;;;12.07;;
21091;SDS011;10704;42.678;23.288;2023-02-23T08:04:38;28.92;;;12.63;;
21091;SDS011;10704;42.678;23.288;2023-02-23T08:07:05;22.33;;;12.20;;
21091;SDS011;10704;42.678;23.288;2023-02-23T08:09:31;20.15;;;13.13;;
21091;SDS011;10704;42.678;23.288;2023-02-23T08:11:59;21.70;;;13.63;;
21091;SDS011;10704;42.678;23.288;2023-02-23T08:14:27;30.40;;;13.25;;
21091;SDS011;10704;42.678;23.288;2023-02-23T08:16:53;25.33;;;14.27;;
21091;SDS011;10704;42.678;23.288;2023-02-23T08:19:19;26.55;;;14.63;;
21091;SDS011;10704;42.678;23.288;2023-02-23T08:21:50;24.10;;;13.95;;
21091;SDS011;10704;42.678;23.288;2023-02-23T08:24:16;23.30;;;12.98;;
21091;SDS011;10704;42.678;23.288;2023-02-23T08:26:42;19.92;;;11.88;;
21091;SDS011;10704;42.678;23.288;2023-02-23T08:29:08;20.60;;;12.25;;
21091;SDS011;10704;42.678;23.288;2023-02-23T08:31:34;20.50;;;11.32;;
21091;SDS011;10704;42.678;23.288;2023-02-23T08:34:01;22.92;;;13.15;;
21091;SDS011;10704;42.678;23.288;2023-02-23T08:36:27;21.67;;;12.90;;
21091;SDS011;10704;42.678;23.288;2023-02-23T08:38:53;21.55;;;12.90;;
21091;SDS011;10704;42.678;23.288;2023-02-23T08:41:19;21.88;;;12.07;;
21091;SDS011;10704;42.678;23.288;2023-02-23T08:43:45;25.48;;;13.40;;
21091;SDS011;10704;42.678;23.288;2023-02-23T08:46:12;20.15;;;13.27;;
21091;SDS011;10704;42.678;23.288;2023-02-23T08:48:40;22.35;;;12.32;;
21091;SDS011;10704;42.678;23.288;2023-02-23T08:51:07;26.85;;;12.68;;
21091;SDS011;10704;42.678;23.288;2023-02-23T08:53:33;18.48;;;12.82;;
21091;SDS011;10704;42.678;23.288;2023-02-23T08:56:00;23.13;;;14.13;;
21091;SDS011;10704;42.678;23.288;2023-02-23T08:58:29;21.48;;;14.40;;
21091;SDS011;10704;42.678;23.288;2023-02-23T09:00:57;22.65;;;14.80;;
21091;SDS011;10704;42.678;23.288;2023-02-23T09:03:23;26.83;;;15.55;;
21091;SDS011;10704;42.678;23.288;2023-02-23T09:05:50;32.15;;;16.65;;
21091;SDS011;10704;42.678;23.288;2023-02-23T09:08:16;27.85;;;15.90;;
21091;SDS011;10704;42.678;23.288;2023-02-23T09:10:42;27.13;;;16.05;;
21091;SDS011;10704;42.678;23.288;2023-02-23T09:13:09;28.15;;;17.65;;
21091;SDS011;10704;42.678;23.288;2023-02-23T09:15:36;28.50;;;17.83;;
21091;SDS011;10704;42.678;23.288;2023-02-23T09:18:04;34.28;;;18.10;;
21091;SDS011;10704;42.678;23.288;2023-02-23T09:20:31;28.92;;;18.73;;
21091;SDS011;10704;42.678;23.288;2023-02-23T09:22:57;25.05;;;17.77;;
21091;SDS011;10704;42.678;23.288;2023-02-23T09:25:23;27.38;;;18.50;;
21091;SDS011;10704;42.678;23.288;2023-02-23T09:27:50;31.85;;;18.58;;
21091;SDS011;10704;42.678;23.288;2023-02-23T09:30:19;24.92;;;16.60;;
21091;SDS011;10704;42.678;23.288;2023-02-23T09:32:45;30.45;;;18.50;;
21091;SDS011;10704;42.678;23.288;2023-02-23T09:35:12;31.90;;;19.15;;
21091;SDS011;10704;42.678;23.288;2023-02-23T09:37:51;26.35;;;18.38;;
21091;SDS011;10704;42.678;23.288;2023-02-23T09:50:41;33.58;;;17.05;;
21091;SDS011;10704;42.678;23.288;2023-02-23T09:53:44;24.73;;;17.35;;
21091;SDS011;10704;42.678;23.288;2023-02-23T09:56:13;27.58;;;17.65;;
21091;SDS011;10704;42.678;23.288;2023-02-23T09:59:01;27.42;;;17.17;;
21091;SDS011;10704;42.678;23.288;2023-02-23T10:01:37;28.77;;;17.33;;
21091;SDS011;10704;42.678;23.288;2023-02-23T10:04:26;23.88;;;16.30;;
21091;SDS011;10704;42.678;23.288;2023-02-23T10:13:03;30.17;;;16.77;;
21091;SDS011;10704;42.678;23.288;2023-02-23T10:23:29;21.63;;;15.65;;
21091;SDS011;10704;42.678;23.288;2023-02-23T10:26:00;24.80;;;16.58;;
21091;SDS011;10704;42.678;23.288;2023-02-23T10:28:29;26.45;;;16.98;;
21091;SDS011;10704;42.678;23.288;2023-02-23T10:30:59;28.90;;;17.20;;
21091;SDS011;10704;42.678;23.288;2023-02-23T10:33:33;28.73;;;15.43;;
21091;SDS011;10704;42.678;23.288;2023-02-23T10:36:18;26.88;;;16.33;;
21091;SDS011;10704;42.678;23.288;2023-02-23T10:38:55;25.95;;;14.98;;
21091;SDS011;10704;42.678;23.288;2023-02-23T10:41:21;25.67;;;14.88;;
21091;SDS011;10704;42.678;23.288;2023-02-23T10:43:47;25.13;;;14.35;;
21091;SDS011;10704;42.678;23.288;2023-02-23T10:46:16;22.45;;;13.07;;
21091;SDS011;10704;42.678;23.288;2023-02-23T10:48:46;22.88;;;15.10;;
21091;SDS011;10704;42.678;23.288;2023-02-23T10:51:16;23.58;;;13.93;;
21091;SDS011;10704;42.678;23.288;2023-02-23T10:53:45;17.98;;;12.98;;
21091;SDS011;10704;42.678;23.288;2023-02-23T10:56:12;21.20;;;12.15;;
21091;SDS011;10704;42.678;23.288;2023-02-23T10:58:45;20.52;;;11.25;;
21091;SDS011;10704;42.678;23.288;2023-02-23T11:01:14;18.38;;;10.48;;
21091;SDS011;10704;42.678;23.288;2023-02-23T11:06:46;13.93;;;10.68;;
21091;SDS011;10704;42.678;23.288;2023-02-23T11:09:23;17.52;;;11.60;;
21091;SDS011;10704;42.678;23.288;2023-02-23T11:11:55;23.58;;;12.68;;
21091;SDS011;10704;42.678;23.288;2023-02-23T11:14:23;20.23;;;13.13;;
21091;SDS011;10704;42.678;23.288;2023-02-23T11:16:52;19.13;;;12.38;;
21091;SDS011;10704;42.678;23.288;2023-02-23T11:19:22;12.13;;;9.05;;
21091;SDS011;10704;42.678;23.288;2023-02-23T11:22:02;12.88;;;8.45;;
21091;SDS011;10704;42.678;23.288;2023-02-23T11:37:44;15.82;;;8.60;;
21091;SDS011;10704;42.678;23.288;2023-02-23T11:40:30;16.40;;;9.45;;
21091;SDS011;10704;42.678;23.288;2023-02-23T11:43:14;18.88;;;10.82;;
21091;SDS011;10704;42.678;23.288;2023-02-23T11:45:51;16.05;;;9.75;;
21091;SDS011;10704;42.678;23.288;2023-02-23T11:52:11;12.73;;;7.82;;
21091;SDS011;10704;42.678;23.288;2023-02-23T11:54:42;15.20;;;7.93;;
21091;SDS011;10704;42.678;23.288;2023-02-23T11:57:23;12.18;;;7.60;;
21091;SDS011;10704;42.678;23.288;2023-02-23T11:59:55;15.07;;;8.23;;
21091;SDS011;10704;42.678;23.288;2023-02-23T12:05:27;13.73;;;8.43;;
21091;SDS011;10704;42.678;23.288;2023-02-23T12:16:52;11.65;;;6.97;;
21091;SDS011;10704;42.678;23.288;2023-02-23T12:19:26;9.80;;;6.72;;
21091;SDS011;10704;42.678;23.288;2023-02-23T12:32:48;12.07;;;6.57;;
21091;SDS011;10704;42.678;23.288;2023-02-23T12:43:01;9.68;;;6.00;;
21091;SDS011;10704;42.678;23.288;2023-02-23T12:49:43;10.32;;;5.97;;
21091;SDS011;10704;42.678;23.288;2023-02-23T12:52:16;15.27;;;6.18;;
21091;SDS011;10704;42.678;23.288;2023-02-23T12:54:46;10.55;;;5.53;;
21091;SDS011;10704;42.678;23.288;2023-02-23T12:57:16;9.95;;;5.30;;
21091;SDS011;10704;42.678;23.288;2023-02-23T13:10:23;15.18;;;6.47;;
21091;SDS011;10704;42.678;23.288;2023-02-23T13:12:44;10.35;;;6.28;;
21091;SDS011;10704;42.678;23.288;2023-02-23T13:26:14;13.77;;;7.25;;
21091;SDS011;10704;42.678;23.288;2023-02-23T13:28:56;12.68;;;6.78;;
21091;SDS011;10704;42.678;23.288;2023-02-23T13:31:37;14.60;;;7.25;;
21091;SDS011;10704;42.678;23.288;2023-02-23T13:34:06;12.43;;;6.97;;
21091;SDS011;10704;42.678;23.288;2023-02-23T13:36:36;13.55;;;7.35;;
21091;SDS011;10704;42.678;23.288;2023-02-23T13:45:25;18.30;;;6.60;;
21091;SDS011;10704;42.678;23.288;2023-02-23T13:53:43;11.20;;;5.78;;
21091;SDS011;10704;42.678;23.288;2023-02-23T13:56:24;12.13;;;6.75;;
21091;SDS011;10704;42.678;23.288;2023-02-23T13:58:58;11.05;;;6.40;;
21091;SDS011;10704;42.678;23.288;2023-02-23T14:09:15;10.30;;;5.45;;
21091;SDS011;10704;42.678;23.288;2023-02-23T14:11:47;17.40;;;6.20;;
21091;SDS011;10704;42.678;23.288;2023-02-23T14:22:28;13.00;;;6.38;;
21091;SDS011;10704;42.678;23.288;2023-02-23T14:28:02;13.68;;;5.95;;
21091;SDS011;10704;42.678;23.288;2023-02-23T14:30:58;11.38;;;5.97;;
21091;SDS011;10704;42.678;23.288;2023-02-23T14:33:33;11.32;;;5.97;;
21091;SDS011;10704;42.678;23.288;2023-02-23T14:35:59;12.77;;;6.20;;
21091;SDS011;10704;42.678;23.288;2023-02-23T14:38:30;11.93;;;5.60;;
21091;SDS011;10704;42.678;23.288;2023-02-23T14:40:59;8.65;;;5.45;;
21091;SDS011;10704;42.678;23.288;2023-02-23T14:46:18;12.40;;;5.72;;
21091;SDS011;10704;42.678;23.288;2023-02-23T14:54:38;12.23;;;5.90;;
21091;SDS011;10704;42.678;23.288;2023-02-23T14:57:15;15.43;;;6.20;;
21091;SDS011;10704;42.678;23.288;2023-02-23T15:03:09;9.50;;;5.53;;
21091;SDS011;10704;42.678;23.288;2023-02-23T15:05:41;9.40;;;5.20;;
21091;SDS011;10704;42.678;23.288;2023-02-23T15:08:11;11.70;;;5.82;;
21091;SDS011;10704;42.678;23.288;2023-02-23T15:10:42;16.20;;;7.93;;
21091;SDS011;10704;42.678;23.288;2023-02-23T15:15:43;14.38;;;6.82;;
21091;SDS011;10704;42.678;23.288;2023-02-23T15:18:13;10.80;;;5.40;;
21091;SDS011;10704;42.678;23.288;2023-02-23T15:20:49;16.10;;;5.57;;
21091;SDS011;10704;42.678;23.288;2023-02-23T15:23:15;10.68;;;5.70;;
21091;SDS011;10704;42.678;23.288;2023-02-23T15:25:43;11.10;;;6.18;;
21091;SDS011;10704;42.678;23.288;2023-02-23T15:30:45;12.65;;;6.75;;
21091;SDS011;10704;42.678;23.288;2023-02-23T15:33:13;10.82;;;6.57;;
21091;SDS011;10704;42.678;23.288;2023-02-23T15:38:23;12.55;;;7.45;;
21091;SDS011;10704;42.678;23.288;2023-02-23T15:41:04;18.38;;;7.35;;
21091;SDS011;10704;42.678;23.288;2023-02-23T15:43:32;12.85;;;6.95;;
21091;SDS011;10704;42.678;23.288;2023-02-23T15:45:59;12.10;;;7.05;;
21091;SDS011;10704;42.678;23.288;2023-02-23T15:48:38;12.02;;;7.10;;
21091;SDS011;10704;42.678;23.288;2023-02-23T15:54:31;16.17;;;8.02;;
21091;SDS011;10704;42.678;23.288;2023-02-23T15:57:07;12.63;;;7.70;;
21091;SDS011;10704;42.678;23.288;2023-02-23T15:59:53;15.10;;;8.50;;
21091;SDS011;10704;42.678;23.288;2023-02-23T16:02:22;14.75;;;8.55;;
21091;SDS011;10704;42.678;23.288;2023-02-23T16:04:49;17.52;;;8.57;;
21091;SDS011;10704;42.678;23.288;2023-02-23T16:07:22;19.73;;;9.60;;
21091;SDS011;10704;42.678;23.288;2023-02-23T16:12:16;18.90;;;9.52;;
21091;SDS011;10704;42.678;23.288;2023-02-23T16:14:52;15.13;;;8.43;;
21091;SDS011;10704;42.678;23.288;2023-02-23T16:17:39;16.02;;;7.47;;
21091;SDS011;10704;42.678;23.288;2023-02-23T16:20:15;14.10;;;7.82;;
21091;SDS011;10704;42.678;23.288;2023-02-23T16:23:03;15.25;;;8.45;;
21091;SDS011;10704;42.678;23.288;2023-02-23T16:25:30;17.98;;;8.93;;
21091;SDS011;10704;42.678;23.288;2023-02-23T16:31:48;17.10;;;9.40;;
21091;SDS011;10704;42.678;23.288;2023-02-23T16:36:57;17.42;;;8.60;;
21091;SDS011;10704;42.678;23.288;2023-02-23T16:39:29;19.13;;;9.10;;
21091;SDS011;10704;42.678;23.288;2023-02-23T16:45:46;14.73;;;8.23;;
21091;SDS011;10704;42.678;23.288;2023-02-23T16:48:15;15.07;;;8.57;;
21091;SDS011;10704;42.678;23.288;2023-02-23T16:50:42;17.05;;;8.85;;
21091;SDS011;10704;42.678;23.288;2023-02-23T16:53:10;15.65;;;8.90;;
21091;SDS011;10704;42.678;23.288;2023-02-23T16:55:42;18.90;;;8.35;;
21091;SDS011;10704;42.678;23.288;2023-02-23T16:58:17;16.02;;;8.25;;
21091;SDS011;10704;42.678;23.288;2023-02-23T17:00:47;17.58;;;8.65;;
21091;SDS011;10704;42.678;23.288;2023-02-23T17:03:18;17.90;;;8.88;;
21091;SDS011;10704;42.678;23.288;2023-02-23T17:05:49;18.67;;;7.93;;
21091;SDS011;10704;42.678;23.288;2023-02-23T17:08:16;15.23;;;8.63;;
21091;SDS011;10704;42.678;23.288;2023-02-23T17:10:42;13.45;;;8.27;;
21091;SDS011;10704;42.678;23.288;2023-02-23T17:13:16;17.05;;;8.80;;
21091;SDS011;10704;42.678;23.288;2023-02-23T17:15:44;17.45;;;8.20;;
21091;SDS011;10704;42.678;23.288;2023-02-23T17:18:16;16.77;;;8.63;;
21091;SDS011;10704;42.678;23.288;2023-02-23T17:20:43;17.42;;;8.48;;
21091;SDS011;10704;42.678;23.288;2023-02-23T17:23:09;15.90;;;8.77;;
21091;SDS011;10704;42.678;23.288;2023-02-23T17:25:35;16.83;;;7.97;;
21091;SDS011;10704;42.678;23.288;2023-02-23T17:28:01;17.17;;;8.75;;
21091;SDS011;10704;42.678;23.288;2023-02-23T17:30:27;18.15;;;8.93;;
21091;SDS011;10704;42.678;23.288;2023-02-23T17:32:55;20.30;;;10.23;;
21091;SDS011;10704;42.678;23.288;2023-02-23T17:35:22;22.60;;;10.27;;
21091;SDS011;10704;42.678;23.288;2023-02-23T17:37:48;19.55;;;9.68;;
21091;SDS011;10704;42.678;23.288;2023-02-23T17:40:17;17.15;;;8.77;;
21091;SDS011;10704;42.678;23.288;2023-02-23T17:42:53;25.52;;;9.93;;
21091;SDS011;10704;42.678;23.288;2023-02-23T17:45:24;22.70;;;10.75;;
21091;SDS011;10704;42.678;23.288;2023-02-23T17:47:50;18.20;;;10.27;;
21091;SDS011;10704;42.678;23.288;2023-02-23T17:50:16;19.13;;;10.23;;
21091;SDS011;10704;42.678;23.288;2023-02-23T17:52:46;15.55;;;9.00;;
21091;SDS011;10704;42.678;23.288;2023-02-23T17:55:13;21.30;;;10.63;;
21091;SDS011;10704;42.678;23.288;2023-02-23T17:57:39;24.73;;;13.15;;
21091;SDS011;10704;42.678;23.288;2023-02-23T18:00:06;24.02;;;13.23;;
21091;SDS011;10704;42.678;23.288;2023-02-23T18:02:37;22.52;;;11.90;;
21091;SDS011;10704;42.678;23.288;2023-02-23T18:05:04;24.27;;;12.82;;
21091;SDS011;10704;42.678;23.288;2023-02-23T18:07:31;20.98;;;11.77;;
21091;SDS011;10704;42.678;23.288;2023-02-23T18:09:57;24.98;;;12.73;;
21091;SDS011;10704;42.678;23.288;2023-02-23T18:12:22;24.15;;;12.48;;
21091;SDS011;10704;42.678;23.288;2023-02-23T18:14:48;22.52;;;12.15;;
21091;SDS011;10704;42.678;23.288;2023-02-23T18:17:14;20.25;;;12.45;;
21091;SDS011;10704;42.678;23.288;2023-02-23T18:19:41;29.40;;;16.30;;
21091;SDS011;10704;42.678;23.288;2023-02-23T18:22:07;32.40;;;15.55;;